Timeline UpdatesTrip UpdatesNews PostsPvt PostsTravel TipsAdmin PostsConv PostsFollowed PostsChat RequestsBlog PostsPNR Posts

Disclaimer
Search
 
 
Thu Oct 2, 2014 05:53:31 ISTHomeTrainsΣChainsAtlasPNRForumGalleryNewsFAQTripsMembersLoginFeedback
No Recent News for this Train
Other Trains in the News **new
Latest...
⇐ Return Journey: n/a

08435/Kendujhargarh - Puri Rath Yatra Special (UnReserved)

TRAIN IS CANCELLED
Change Departure Station:
Change Arrival Station:
Post a Train Travel TipPost a Train Travel Tip **new
Post a Comment/Question/Picture/VideoPost a Comment/Question/Picture/Video
Pantry/Catering
???
RSA - Rake Sharing
Rake/Coach Composition
Loco
News    PNR    Forum    Time-Table    Availability    Fare Chart    Map    Arr/Dep History    Trips    Gallery    ΣChains    X/O    Timeline    
Travel Time: 8h 15m    2 halts    Distance: 277 km    Avg Speed: 33 km/hr
Type: Passenger
Zone: ECoR/East Coast
Departs @ 05:30
Platform# ???
     F 
Kendujhargarh/KDJR 
Arrives @ 13:45
Platform# ???
     F 
Puri/PURI 

2 halts. 43 intermediate Stations between Kendujhargarh and Puri

Hide intermediate Stations  

#CodeStation NameX/OArrivesAvgDepartsAvgHaltPFDay#KmSpeedElevZoneAddress
1KDJRKendujhargarh»  -05:30---10.037456mECoRKendujhar, Odisha
1.1NANRNaranpur  05:39-05:39-  15.7 37471mECoRNaranpur Railway Station, Odisha
1.2BSTPBasantapur  05:54-05:54-  114.9 37451mECoRNational Highway 215, Odisha
1.3STBJSitabinji  06:16-06:16-  128.3 37386mECoRNational Highway 215, Odisha
1.4NKWNilakantheswar  06:32-06:32-  138.2 37362mECoROrissa, Odisha
1.5HCNRHarichandanpur  06:51-06:51-  149.5 37327mECoRRd, Odisha
1.6CLDRChilikidara  07:11-07:11-  162.2 37302mECoROrissa, Odisha
1.7SGDPSagadapata  07:26-07:26-  171.2 37212mECoROrissa, Odisha
1.8TGRLTangiriapal  07:54-07:54-  188.4 37116mECoROrissa, Odisha
1.9TMKATomka  08:10-08:10-  197.9 3792mECoROrissa, Odisha
1.10BGPLBaghuapal  08:23-08:23-  1106.1 3768mECoROrissa, Odisha
1.11SKNDSukinda Road  08:40-08:40-  1116.6 3772mECoRDuburi, Odisha
1.12JKPRJakhapura  08:50-08:50-  1122.4 3719mECoRJajpur, Odisha
1.13JENJenapur  09:03-09:03-  1130.3 3723mECoRNational Highway 200, Odisha
1.14NGMPNew Garh Madhopur  09:12-09:12-  1136.1 3728mECoRGarh Madhopur, Odisha
1.15HDSHaridaspur  09:28-09:28-  1146.0 3730mECoRDhanmandal, Odisha
1.16DNMDhanmandal (3)  09:36-09:36-  1151.1 3738mECoRDhanmanda, Odisha
1.17BRTGBarithengarh  09:47-09:47-  1157.6 3725mECoRCuttack, Odisha
1.18BYYByree  09:54-09:54-  1162.0 3733mECoRBairi, Odisha
1.19KISKapilas Road Junction  10:10-10:10-  1171.8 3724mECoRTangi, Odisha
1.20NRGNergundi  10:17-10:17-  1176.0 3726mECoRCuttack District, Odisha
1.21KNPRKendrapara Road  10:28-10:28-  1182.6 3729mECoRKendrapara Road, Odisha
1.22CTCCuttack Junction (5)  10:35-10:35-  1186.7 3728mECoRCuttack, Odisha
1.23KTJIKatha Jori  10:37-10:37-  1188.3 3728mECoRCuttack, Odisha
1.24GBKGopalpur Balkuda  10:42-10:42-  1191.1 3728mECoRGopalpur, Odisha
1.25BRAGBarang  10:54-10:54-  1198.8 3727mECoRDist - Cuttack, Odisha
1.26BBSNBhubaneswar New  11:03-11:03-  1203.9 3732mECoRBhubaneshwar, Odisha
1.27PTABPatia P.H.  11:04-11:04-  1204.8 3730mECoRBhubaneshwar, Odisha
1.28MCSMancheswar  11:09-11:09-  1207.7 3727mECoRMancheswar, Odisha
1.29BNBHBani Bihar (2)  11:14-11:14-  1211.1 3738mECoRBhubaneswar, Odisha
2BBSBhubaneswar (4)  11:20-11:30-10m--1214.52840mECoRBhubaneshwar, Odisha
2.1LGTRLingaraj Temple Road  11:39-11:39-  1219.0 2839mECoRBhubaneswar, Odisha
2.2SRKTSarkantra  11:44-11:44-  1221.2 2819mECoRBhubaneswar, Odisha
2.3RTNRetang  11:54-11:54-  1226.1 2819mECoRKhurdha, Odisha
3KURKhurda Road Junction (7)  12:10-12:15-5m--1233.52925mECoRKhordha, Odisha
3.1HPGMHaripur Gram  12:20-12:20-  1236.1 2922mECoRKhordha, Odisha
3.2MWQMotari Halt  12:31-12:31-  1241.5 2912mECoRMotari, Odisha
3.3KASRKanas Road  12:39-12:39-  1245.0 299mECoRKhordha, Odisha
3.4DEGDelang  12:46-12:46-  1248.6 299mECoRKhordha, Odisha
3.5JPRDJenapur Road  12:52-12:52-  1251.6 2910mECoRKhordha, Odisha
3.6BRSTBir Purushottampur  13:00-13:00-  1255.4 2912mECoRSatasankha, Odisha
3.7SILSakhi Gopal (3)  13:11-13:11-  1260.9 2910mECoRPuri, Odisha
3.8JKDPJankidaipur  13:24-13:24-  1267.0 2913mECoRChandanpur, Odisha
3.9MLTMalatipatpur (1)  13:30-13:30-  1270.0 2915mECoRPuri, Odisha
4PURIPuri (5)•  13:45----1277.4-12mECoRPuri, Odisha
Scroll to Top
Scroll to Bottom